createdAt,value
2023-03-15T00:01:35.963Z,97154.06
2023-03-15T00:03:08.919Z,97150.41
2023-03-15T00:04:41.105Z,97171.97
2023-03-15T00:06:25.002Z,97171.39
2023-03-15T00:08:04.410Z,97194.98
2023-03-15T00:09:34.768Z,97201.39
2023-03-15T00:11:02.297Z,97202.39
2023-03-15T00:12:31.241Z,97201.52
2023-03-15T00:14:04.196Z,97207.43
2023-03-15T00:15:36.510Z,97211.89
2023-03-15T00:16:57.326Z,97201.77
2023-03-15T00:18:17.929Z,97215.48
2023-03-15T00:19:49.814Z,97220.97
2023-03-15T00:21:33.482Z,97225.05
2023-03-15T00:23:17.197Z,97227.81
2023-03-15T00:24:37.822Z,97232.35
2023-03-15T00:26:09.820Z,97239.15
2023-03-15T00:27:41.813Z,97235.56
2023-03-15T00:29:02.556Z,97247.25
2023-03-15T00:30:42.001Z,97252.41
2023-03-15T00:32:16.417Z,97266.23
2023-03-15T00:33:57.506Z,97270.11
2023-03-15T00:35:38.744Z,97258.27
2023-03-15T00:37:22.439Z,97273.65
2023-03-15T00:38:57.077Z,97276.27
2023-03-15T00:40:17.312Z,97279.48
2023-03-15T00:41:52.142Z,97285.18
2023-03-15T00:43:31.632Z,97289.44
2023-03-15T00:45:16.134Z,97293.03
2023-03-15T00:46:48.449Z,97293.45
2023-03-15T00:48:21.570Z,97303.39
2023-03-15T00:49:44.780Z,97304.62
2023-03-15T00:51:07.804Z,97311.91
2023-03-15T00:52:41.268Z,97311.58
2023-03-15T00:54:13.118Z,97315.08
2023-03-15T00:55:45.124Z,97318.43
2023-03-15T00:57:13.129Z,97327.92
2023-03-15T00:58:52.856Z,97328.89
2023-03-15T01:00:25.294Z,97339.02
2023-03-15T01:01:48.245Z,97343.48
2023-03-15T01:03:20.890Z,97353.00
2023-03-15T01:05:04.510Z,97360.96
2023-03-15T01:06:24.919Z,97362.05
2023-03-15T01:08:05.953Z,97373.08
2023-03-15T01:09:49.330Z,97386.36
2023-03-15T01:11:23.421Z,97390.06
2023-03-15T01:12:48.228Z,97392.93
2023-03-15T01:14:21.455Z,97395.63
2023-03-15T01:15:55.324Z,97402.88
2023-03-15T01:17:26.940Z,97404.40
2023-03-15T01:19:07.971Z,97406.37
2023-03-15T01:20:48.247Z,97406.86
2023-03-15T01:22:20.355Z,97409.55
2023-03-15T01:23:52.343Z,97406.65
2023-03-15T01:25:22.296Z,97414.50
2023-03-15T01:26:50.714Z,97419.25
2023-03-15T01:28:30.510Z,97424.30
2023-03-15T01:30:02.808Z,97436.80
2023-03-15T01:31:23.114Z,97442.24
2023-03-15T01:32:43.937Z,97447.48
2023-03-15T01:34:15.992Z,97450.14
2023-03-15T01:35:36.148Z,97450.09
2023-03-15T01:37:07.972Z,97452.04
2023-03-15T01:38:33.843Z,97436.02
2023-03-15T01:40:09.095Z,97455.68
2023-03-15T01:41:41.034Z,97457.55
2023-03-15T01:43:01.522Z,97454.27
2023-03-15T01:44:23.392Z,97458.42
2023-03-15T01:45:57.832Z,97462.89
2023-03-15T01:47:32.294Z,97463.58
2023-03-15T01:48:54.862Z,97461.42
2023-03-15T01:50:24.658Z,97465.77
2023-03-15T01:51:45.510Z,97467.93
2023-03-15T01:53:06.551Z,97468.19
2023-03-15T01:54:29.574Z,97470.98
2023-03-15T01:56:00.100Z,97473.97
2023-03-15T01:57:38.254Z,97479.87
2023-03-15T01:59:00.819Z,97482.90
2023-03-15T02:00:21.029Z,97488.63
2023-03-15T02:02:10.739Z,97495.52
2023-03-15T02:03:42.973Z,97499.30
2023-03-15T02:05:10.332Z,97507.77
2023-03-15T02:06:45.977Z,97513.61
2023-03-15T02:08:18.397Z,97525.43
2023-03-15T02:09:50.787Z,97528.63
2023-03-15T02:11:30.918Z,97531.44
2023-03-15T02:13:01.213Z,97528.31
2023-03-15T02:14:35.727Z,97529.98
2023-03-15T02:16:19.491Z,97534.45
2023-03-15T02:17:51.325Z,97533.66
2023-03-15T02:19:12.022Z,97534.75
2023-03-15T02:20:44.183Z,97537.60
2023-03-15T02:22:16.938Z,97541.16
2023-03-15T02:23:39.771Z,97542.73
2023-03-15T02:25:11.940Z,97530.80
2023-03-15T02:26:43.569Z,97543.45
2023-03-15T02:28:04.182Z,97546.60
2023-03-15T02:29:48.971Z,97558.95
2023-03-15T02:31:26.035Z,97559.28
2023-03-15T02:33:09.435Z,97569.20
2023-03-15T02:34:52.853Z,97575.10
2023-03-15T02:36:13.702Z,97584.73
2023-03-15T02:37:57.660Z,97589.77
2023-03-15T02:39:20.367Z,97591.23
2023-03-15T02:41:04.149Z,97601.95
2023-03-15T02:42:35.929Z,97613.56
2023-03-15T02:43:56.317Z,97626.23
2023-03-15T02:45:35.926Z,97632.34
2023-03-15T02:47:03.791Z,97639.77
2023-03-15T02:48:31.762Z,97643.33
2023-03-15T02:50:11.296Z,97637.52
2023-03-15T02:51:34.052Z,97639.67
2023-03-15T02:53:02.416Z,97638.59
2023-03-15T02:54:46.140Z,97641.45
2023-03-15T02:56:29.877Z,97641.92
2023-03-15T02:58:09.575Z,97636.26
2023-03-15T02:59:49.965Z,97635.04
2023-03-15T03:01:24.387Z,97630.41
2023-03-15T03:03:05.477Z,97632.00
2023-03-15T03:04:37.643Z,97636.98
2023-03-15T03:06:23.279Z,97646.48
2023-03-15T03:08:04.571Z,97650.16
2023-03-15T03:09:39.927Z,97660.02
2023-03-15T03:11:12.225Z,97663.52
2023-03-15T03:13:05.949Z,97670.84
2023-03-15T03:14:54.279Z,97670.17
2023-03-15T03:16:27.519Z,97668.61
2023-03-15T03:17:59.324Z,97664.37
2023-03-15T03:19:25.180Z,97660.33
2023-03-15T03:21:08.831Z,97664.86
2023-03-15T03:22:48.287Z,97672.07
2023-03-15T03:24:32.825Z,97681.42
2023-03-15T03:26:12.159Z,97681.45
2023-03-15T03:27:52.132Z,97683.28
2023-03-15T03:29:32.161Z,97681.56
2023-03-15T03:31:07.376Z,97680.16
2023-03-15T03:32:37.181Z,97686.98
2023-03-15T03:34:09.898Z,97688.13
2023-03-15T03:35:42.668Z,97684.85
2023-03-15T03:37:14.942Z,97684.75
2023-03-15T03:39:03.588Z,97680.42
2023-03-15T03:40:31.636Z,97683.02
2023-03-15T03:42:16.128Z,97681.66
2023-03-15T03:44:00.117Z,97671.75
2023-03-15T03:45:51.964Z,97681.02
2023-03-15T03:47:36.238Z,97678.48
2023-03-15T03:49:19.987Z,97682.55
2023-03-15T03:50:52.058Z,97689.15
2023-03-15T03:52:24.604Z,97690.39
2023-03-15T03:53:59.584Z,97693.08
2023-03-15T03:55:40.991Z,97701.77
2023-03-15T03:57:25.057Z,97704.48
2023-03-15T03:58:57.125Z,97702.89
2023-03-15T04:00:54.704Z,97707.73
2023-03-15T04:02:39.205Z,97708.63
2023-03-15T04:04:25.160Z,97713.14
2023-03-15T04:05:56.274Z,97708.92
2023-03-15T04:07:40.882Z,97711.27
2023-03-15T04:09:24.557Z,97715.55
2023-03-15T04:11:09.792Z,97712.83
2023-03-15T04:12:32.533Z,97719.55
2023-03-15T04:14:12.319Z,97720.39
2023-03-15T04:15:56.769Z,97727.54
2023-03-15T04:17:21.343Z,97727.60
2023-03-15T04:19:01.430Z,97734.14
2023-03-15T04:20:56.265Z,97735.70
2023-03-15T04:22:30.746Z,97736.71
2023-03-15T04:24:10.078Z,97732.26
2023-03-15T04:26:01.141Z,97733.85
2023-03-15T04:28:02.427Z,97733.27
2023-03-15T04:29:54.522Z,97737.80
2023-03-15T04:31:53.837Z,97740.19
2023-03-15T04:33:35.483Z,97745.21
2023-03-15T04:34:56.298Z,97746.27
2023-03-15T04:36:47.280Z,97750.08
2023-03-15T04:38:46.377Z,97750.56
2023-03-15T04:40:18.818Z,97754.02
2023-03-15T04:41:59.147Z,97758.83
2023-03-15T04:43:41.125Z,97764.93
2023-03-15T04:45:29.212Z,97763.52
2023-03-15T04:47:24.561Z,97763.97
2023-03-15T04:49:50.526Z,97760.45
2023-03-15T04:51:55.681Z,97763.01
2023-03-15T04:54:11.660Z,97768.17
2023-03-15T04:56:19.622Z,97776.95
2023-03-15T04:58:14.682Z,97782.38
2023-03-15T05:00:09.954Z,97777.98
2023-03-15T05:02:22.910Z,97774.02
2023-03-15T05:04:44.757Z,97780.98
2023-03-15T05:06:35.911Z,97786.39
2023-03-15T05:08:20.894Z,97790.48
2023-03-15T05:10:34.158Z,97793.43
2023-03-15T05:12:27.277Z,97795.27
2023-03-15T05:14:07.165Z,97796.88
2023-03-15T05:15:39.142Z,97804.13
2023-03-15T05:17:33.081Z,97804.98
2023-03-15T05:20:17.910Z,97806.77
2023-03-15T05:22:08.481Z,97810.05
2023-03-15T05:23:57.833Z,97815.77
2023-03-15T05:26:01.084Z,97819.00
2023-03-15T05:28:12.477Z,97824.15
2023-03-15T05:30:03.283Z,97825.63
2023-03-15T05:32:03.720Z,97819.13
2023-03-15T05:33:45.878Z,97808.86
2023-03-15T05:36:00.078Z,97804.00
2023-03-15T05:37:51.192Z,97812.17
2023-03-15T05:39:47.881Z,97821.46
2023-03-15T05:41:40.353Z,97823.48
2023-03-15T05:43:35.478Z,97832.11
2023-03-15T05:45:25.595Z,97838.48
2023-03-15T05:47:43.054Z,97844.24
2023-03-15T05:49:35.097Z,97848.02
2023-03-15T05:51:14.785Z,97858.98
2023-03-15T05:53:44.168Z,97862.64
2023-03-15T05:55:40.954Z,97870.39
2023-03-15T05:57:39.374Z,97877.20
2023-03-15T05:59:34.161Z,97886.25
2023-03-15T06:01:09.374Z,97883.44
2023-03-15T06:02:49.849Z,97882.63
2023-03-15T06:04:24.787Z,97883.56
2023-03-15T06:06:05.586Z,97888.40
2023-03-15T06:07:53.831Z,97889.27
2023-03-15T06:09:26.070Z,97898.90
2023-03-15T06:10:59.045Z,97892.68
2023-03-15T06:12:33.626Z,97896.16
2023-03-15T06:14:08.054Z,97890.56
2023-03-15T06:15:40.563Z,97893.85
2023-03-15T06:17:24.374Z,97897.89
2023-03-15T06:19:08.412Z,97895.65
2023-03-15T06:20:42.527Z,97898.70
2023-03-15T06:22:20.004Z,97899.80
2023-03-15T06:24:09.526Z,97901.39
2023-03-15T06:25:53.499Z,97901.77
2023-03-15T06:27:21.145Z,97907.27
2023-03-15T06:28:56.656Z,97906.73
2023-03-15T06:30:17.487Z,97912.70
2023-03-15T06:31:50.461Z,97898.66
2023-03-15T06:33:35.155Z,97915.45
2023-03-15T06:35:07.753Z,97919.73
2023-03-15T06:36:40.385Z,97919.46
2023-03-15T06:38:20.102Z,97923.94
2023-03-15T06:39:52.140Z,97927.69
2023-03-15T06:41:32.523Z,97929.36
2023-03-15T06:43:22.759Z,97931.05
2023-03-15T06:45:05.620Z,97932.98
2023-03-15T06:46:49.653Z,97939.42
2023-03-15T06:48:33.856Z,97941.89
2023-03-15T06:50:14.261Z,97940.88
2023-03-15T06:51:48.134Z,97943.43
2023-03-15T06:53:20.350Z,97944.09
2023-03-15T06:54:55.065Z,97948.99
2023-03-15T06:56:29.688Z,97943.48
2023-03-15T06:58:17.929Z,97921.27
2023-03-15T06:59:40.863Z,97956.42
2023-03-15T07:01:15.585Z,97961.54
2023-03-15T07:02:59.332Z,97963.66
2023-03-15T07:04:19.209Z,97964.08
2023-03-15T07:06:04.975Z,97961.20
2023-03-15T07:07:49.182Z,97964.25
2023-03-15T07:09:32.817Z,97950.30
2023-03-15T07:11:07.430Z,97964.77
2023-03-15T07:12:50.920Z,97959.61
2023-03-15T07:14:30.628Z,97955.91
2023-03-15T07:16:14.436Z,97954.86
2023-03-15T07:17:46.711Z,97950.73
2023-03-15T07:19:30.923Z,97959.77
2023-03-15T07:21:02.708Z,97971.94
2023-03-15T07:22:47.736Z,97976.77
2023-03-15T07:24:31.873Z,97984.38
2023-03-15T07:26:03.926Z,97986.42
2023-03-15T07:27:38.294Z,97994.06
2023-03-15T07:29:17.845Z,97995.67
2023-03-15T07:30:47.400Z,98001.42
2023-03-15T07:32:31.318Z,97999.17
2023-03-15T07:34:16.906Z,98001.06
2023-03-15T07:35:49.028Z,98004.23
2023-03-15T07:37:33.153Z,98006.71
2023-03-15T07:39:05.155Z,98005.61
2023-03-15T07:40:30.105Z,98007.42
2023-03-15T07:42:14.365Z,98010.09
2023-03-15T07:43:59.775Z,98009.98
2023-03-15T07:45:43.315Z,98010.02
2023-03-15T07:47:11.272Z,98014.84
2023-03-15T07:48:43.357Z,98015.89
2023-03-15T07:50:17.154Z,98016.44
2023-03-15T07:52:06.416Z,98017.11
2023-03-15T07:53:45.906Z,98023.86
2023-03-15T07:55:13.773Z,98024.81
2023-03-15T07:56:47.968Z,98027.51
2023-03-15T07:58:31.547Z,98020.54
2023-03-15T08:00:03.731Z,98038.55
2023-03-15T08:01:40.062Z,98046.84
2023-03-15T08:03:14.848Z,98048.23
2023-03-15T08:05:07.097Z,98044.75
2023-03-15T08:06:55.928Z,98055.81
2023-03-15T08:08:39.898Z,98054.71
2023-03-15T08:10:24.989Z,98060.02
2023-03-15T08:12:08.794Z,98062.78
2023-03-15T08:13:36.611Z,98068.05
2023-03-15T08:15:20.495Z,98061.98
2023-03-15T08:16:52.541Z,98065.00
2023-03-15T08:18:44.455Z,98066.14
2023-03-15T08:20:05.782Z,98073.21
2023-03-15T08:21:26.365Z,98079.10
2023-03-15T08:22:58.857Z,98082.17
2023-03-15T08:24:29.121Z,98083.91
2023-03-15T08:26:01.268Z,98087.84
2023-03-15T08:27:21.922Z,98094.77
2023-03-15T08:29:01.874Z,98093.96
2023-03-15T08:30:33.770Z,98096.59
2023-03-15T08:32:17.708Z,98099.70
2023-03-15T08:33:49.396Z,98101.73
2023-03-15T08:35:33.512Z,98103.32
2023-03-15T08:36:54.723Z,98098.77
2023-03-15T08:38:26.875Z,98103.60
2023-03-15T08:40:10.602Z,98105.09
2023-03-15T08:42:03.105Z,98105.34
2023-03-15T08:43:35.510Z,98105.60
2023-03-15T08:45:16.906Z,98104.41
2023-03-15T08:46:47.244Z,98111.91
2023-03-15T08:48:09.962Z,98112.34
2023-03-15T08:49:30.809Z,98121.09
2023-03-15T08:51:08.810Z,98125.70
2023-03-15T08:53:01.924Z,98126.70
2023-03-15T08:54:45.638Z,98125.59
2023-03-15T08:56:30.469Z,98126.82
2023-03-15T08:58:14.073Z,98131.54
2023-03-15T09:00:07.915Z,98137.60
2023-03-15T09:01:51.421Z,98133.81
2023-03-15T09:03:30.871Z,98134.15
2023-03-15T09:05:15.489Z,98140.34
2023-03-15T09:06:50.714Z,98144.13
2023-03-15T09:08:22.838Z,98142.84
2023-03-15T09:10:07.872Z,98147.42
2023-03-15T09:12:00.884Z,98153.59
2023-03-15T09:13:30.723Z,98155.80
2023-03-15T09:15:12.634Z,98160.45
2023-03-15T09:17:01.002Z,98163.10
2023-03-15T09:18:52.953Z,98162.96
2023-03-15T09:20:39.098Z,98163.55
2023-03-15T09:22:23.398Z,98163.69
2023-03-15T09:23:56.093Z,98169.83
2023-03-15T09:25:47.757Z,98174.67
2023-03-15T09:27:31.830Z,98178.08
2023-03-15T09:29:15.659Z,98182.07
2023-03-15T09:31:08.661Z,98187.01
2023-03-15T09:32:57.832Z,98181.45
2023-03-15T09:34:18.595Z,98166.95
2023-03-15T09:36:10.653Z,98183.16
2023-03-15T09:37:56.050Z,98191.39
2023-03-15T09:39:28.260Z,98191.83
2023-03-15T09:41:11.723Z,98187.92
2023-03-15T09:43:03.569Z,98193.64
2023-03-15T09:44:47.328Z,98193.75
2023-03-15T09:46:31.173Z,98188.34
2023-03-15T09:47:51.812Z,98192.49
2023-03-15T09:49:38.383Z,98189.27
2023-03-15T09:51:11.954Z,98182.34
2023-03-15T09:52:47.367Z,98177.08
2023-03-15T09:54:31.398Z,98164.60
2023-03-15T09:56:15.588Z,98177.61
2023-03-15T09:57:59.970Z,98178.73
2023-03-15T09:59:44.079Z,98183.64
2023-03-15T10:01:28.213Z,98183.92
2023-03-15T10:03:14.280Z,98184.13
2023-03-15T10:05:05.886Z,98185.95
2023-03-15T10:06:53.130Z,98187.34
2023-03-15T10:08:21.376Z,98184.94
2023-03-15T10:10:09.494Z,98187.90
2023-03-15T10:11:54.019Z,98188.50
2023-03-15T10:13:38.187Z,98187.78
2023-03-15T10:15:22.002Z,98186.14
2023-03-15T10:16:54.199Z,98190.88
2023-03-15T10:18:26.018Z,98194.45
2023-03-15T10:20:05.594Z,98194.58
2023-03-15T10:21:49.394Z,98194.42
2023-03-15T10:23:17.449Z,98187.91
2023-03-15T10:25:10.008Z,98190.09
2023-03-15T10:26:50.782Z,98192.62
2023-03-15T10:28:18.696Z,98196.96
2023-03-15T10:30:10.826Z,98192.21
2023-03-15T10:32:03.402Z,98191.31
2023-03-15T10:33:48.478Z,98189.91
2023-03-15T10:35:20.977Z,98195.61
2023-03-15T10:37:02.179Z,98194.16
2023-03-15T10:38:36.334Z,98186.95
2023-03-15T10:40:27.660Z,98188.40
2023-03-15T10:42:13.620Z,98194.73
2023-03-15T10:43:45.827Z,98198.10
2023-03-15T10:45:19.085Z,98201.84
2023-03-15T10:46:51.464Z,98203.45
2023-03-15T10:48:23.670Z,98201.01
2023-03-15T10:49:55.518Z,98185.13
2023-03-15T10:51:30.253Z,98199.92
2023-03-15T10:52:55.134Z,98199.88
2023-03-15T10:54:17.914Z,98204.73
2023-03-15T10:55:41.451Z,98201.27
2023-03-15T10:57:04.871Z,98198.24
2023-03-15T10:59:05.546Z,98193.33
2023-03-15T11:00:53.871Z,98195.98
2023-03-15T11:02:14.421Z,98195.77
2023-03-15T11:03:57.428Z,98197.80
2023-03-15T11:05:42.880Z,98199.22
2023-03-15T11:07:15.163Z,98201.88
2023-03-15T11:09:03.921Z,98195.62
2023-03-15T11:10:24.638Z,98197.69
2023-03-15T11:11:55.026Z,98195.79
2023-03-15T11:13:29.187Z,98196.93
2023-03-15T11:15:12.766Z,98197.45
2023-03-15T11:16:52.117Z,98197.34
2023-03-15T11:18:24.075Z,98196.95
2023-03-15T11:20:10.633Z,98204.46
2023-03-15T11:21:40.893Z,98200.65
2023-03-15T11:23:15.736Z,98197.41
2023-03-15T11:24:43.215Z,98199.92
2023-03-15T11:26:03.888Z,98200.52
2023-03-15T11:27:24.246Z,98199.98
2023-03-15T11:29:04.710Z,98196.11
2023-03-15T11:30:49.164Z,98194.16
2023-03-15T11:32:26.259Z,98199.36
2023-03-15T11:33:51.591Z,98199.73
2023-03-15T11:35:25.479Z,98198.27
2023-03-15T11:37:08.917Z,98197.54
2023-03-15T11:38:32.594Z,98196.63
2023-03-15T11:40:17.250Z,98201.89
2023-03-15T11:41:55.265Z,98202.15
2023-03-15T11:43:27.529Z,98206.75
2023-03-15T11:44:59.324Z,98209.46
2023-03-15T11:46:39.341Z,98210.06
2023-03-15T11:48:07.333Z,98211.19
2023-03-15T11:49:46.957Z,98203.96
2023-03-15T11:51:18.761Z,98206.92
2023-03-15T11:52:52.982Z,98204.66
2023-03-15T11:54:21.224Z,98203.95
2023-03-15T11:56:00.981Z,98208.43
2023-03-15T11:57:26.175Z,98208.38
2023-03-15T11:59:13.785Z,98215.48
2023-03-15T12:00:52.993Z,98212.25
2023-03-15T12:02:19.206Z,98216.86
2023-03-15T12:04:07.188Z,98217.30
2023-03-15T12:05:50.883Z,98212.02
2023-03-15T12:07:19.017Z,98211.79
2023-03-15T12:08:49.885Z,98210.94
2023-03-15T12:10:19.857Z,98214.27
2023-03-15T12:12:00.281Z,98212.86
2023-03-15T12:13:43.834Z,98215.51
2023-03-15T12:15:16.043Z,98216.66
2023-03-15T12:16:36.233Z,98219.64
2023-03-15T12:18:15.578Z,98222.01
2023-03-15T12:19:35.469Z,98222.77
2023-03-15T12:20:58.536Z,98214.95
2023-03-15T12:22:26.614Z,98219.23
2023-03-15T12:23:58.887Z,98214.99
2023-03-15T12:25:31.640Z,98218.97
2023-03-15T12:27:16.180Z,98208.10
2023-03-15T12:28:44.278Z,98228.21
2023-03-15T12:30:16.314Z,98229.25
2023-03-15T12:31:55.798Z,98225.95
2023-03-15T12:33:18.968Z,98225.38
2023-03-15T12:34:55.134Z,98225.23
2023-03-15T12:36:39.141Z,98220.95
2023-03-15T12:38:22.761Z,98222.64
2023-03-15T12:40:12.026Z,98222.73
2023-03-15T12:41:55.619Z,98225.55
2023-03-15T12:43:27.910Z,98226.31
2023-03-15T12:45:12.031Z,98223.66
2023-03-15T12:46:43.908Z,98229.93
2023-03-15T12:48:18.489Z,98234.11
2023-03-15T12:49:41.505Z,98238.41
2023-03-15T12:51:03.196Z,98234.27
2023-03-15T12:52:25.782Z,98236.06
2023-03-15T12:53:47.007Z,98239.08
2023-03-15T12:55:18.894Z,98243.95
2023-03-15T12:56:50.636Z,98242.02
2023-03-15T12:58:20.693Z,98246.48
2023-03-15T13:00:00.108Z,98248.48
2023-03-15T13:01:26.071Z,98255.50
2023-03-15T13:03:10.333Z,98253.91
2023-03-15T13:04:51.430Z,98256.31
2023-03-15T13:06:23.817Z,98258.94
2023-03-15T13:08:07.711Z,98254.84
2023-03-15T13:09:41.246Z,98257.58
2023-03-15T13:11:25.170Z,98257.58
2023-03-15T13:13:06.899Z,98259.27
2023-03-15T13:14:34.888Z,98261.41
2023-03-15T13:16:09.273Z,98260.98
2023-03-15T13:17:54.225Z,98266.77
2023-03-15T13:19:14.929Z,98270.11
2023-03-15T13:20:47.455Z,98273.94
2023-03-15T13:22:21.786Z,98273.88
2023-03-15T13:23:53.868Z,98272.80
2023-03-15T13:25:33.482Z,98273.84
2023-03-15T13:27:08.896Z,98277.79
2023-03-15T13:29:01.406Z,98278.30
2023-03-15T13:30:29.693Z,98281.65
2023-03-15T13:31:52.820Z,98287.38
2023-03-15T13:33:22.888Z,98284.23
2023-03-15T13:34:55.022Z,98290.63
2023-03-15T13:36:25.266Z,98286.56
2023-03-15T13:37:59.669Z,98292.44
2023-03-15T13:39:29.245Z,98288.30
2023-03-15T13:41:01.109Z,98290.70
2023-03-15T13:42:34.759Z,98295.79
2023-03-15T13:44:18.833Z,98296.58
2023-03-15T13:45:53.179Z,98296.20
2023-03-15T13:47:25.593Z,98303.41
2023-03-15T13:48:57.670Z,98297.48
2023-03-15T13:50:30.457Z,98299.02
2023-03-15T13:52:13.923Z,98304.54
2023-03-15T13:53:50.226Z,98305.56
2023-03-15T13:55:22.735Z,98305.95
2023-03-15T13:57:06.723Z,98308.65
2023-03-15T13:58:34.874Z,98309.02
2023-03-15T14:00:07.867Z,98315.02
2023-03-15T14:01:42.619Z,98317.55
2023-03-15T14:03:26.533Z,98321.95
2023-03-15T14:04:51.161Z,98320.38
2023-03-15T14:06:25.993Z,98319.71
2023-03-15T14:07:59.169Z,98321.95
2023-03-15T14:09:34.443Z,98320.52
2023-03-15T14:11:19.143Z,98321.75
2023-03-15T14:13:03.263Z,98318.08
2023-03-15T14:14:37.691Z,98317.06
2023-03-15T14:16:17.329Z,98320.63
2023-03-15T14:17:58.898Z,98318.17
2023-03-15T14:19:42.795Z,98322.77
2023-03-15T14:21:05.895Z,98322.27
2023-03-15T14:22:40.244Z,98327.94
2023-03-15T14:24:24.149Z,98319.64
2023-03-15T14:25:56.281Z,98320.21
2023-03-15T14:27:30.806Z,98323.77
2023-03-15T14:29:15.006Z,98321.70
2023-03-15T14:30:55.891Z,98322.75
2023-03-15T14:32:28.341Z,98321.46
2023-03-15T14:34:15.894Z,98322.65
2023-03-15T14:35:38.424Z,98321.48
2023-03-15T14:37:11.073Z,98324.64
2023-03-15T14:38:45.086Z,98322.70
2023-03-15T14:40:19.388Z,98321.70
2023-03-15T14:41:46.902Z,98322.16
2023-03-15T14:43:30.972Z,98327.47
2023-03-15T14:45:02.944Z,98318.10
2023-03-15T14:46:25.886Z,98329.53
2023-03-15T14:47:59.340Z,98326.23
2023-03-15T14:49:51.821Z,98327.98
2023-03-15T14:51:31.784Z,98317.73
2023-03-15T14:53:15.479Z,98323.14
2023-03-15T14:54:55.877Z,98320.33
2023-03-15T14:56:40.039Z,98322.23
2023-03-15T14:58:08.334Z,98325.70
2023-03-15T14:59:30.589Z,98327.40
2023-03-15T15:00:50.987Z,98329.23
2023-03-15T15:02:21.734Z,98336.31
2023-03-15T15:03:56.810Z,98333.89
2023-03-15T15:05:48.919Z,98334.81
2023-03-15T15:07:24.547Z,98335.20
2023-03-15T15:08:59.186Z,98338.30
2023-03-15T15:10:50.816Z,98337.96
2023-03-15T15:12:22.950Z,98343.02
2023-03-15T15:14:06.319Z,98345.69
2023-03-15T15:15:26.683Z,98349.42
2023-03-15T15:16:47.532Z,98353.29
2023-03-15T15:18:08.246Z,98354.45
2023-03-15T15:19:54.412Z,98354.56
2023-03-15T15:21:34.332Z,98355.45
2023-03-15T15:23:06.599Z,98354.42
2023-03-15T15:24:39.098Z,98356.89
2023-03-15T15:26:13.925Z,98358.41
2023-03-15T15:28:01.213Z,98357.19
2023-03-15T15:29:33.862Z,98358.48
2023-03-15T15:31:13.714Z,98353.64
2023-03-15T15:33:00.978Z,98354.64
2023-03-15T15:34:45.015Z,98354.33
2023-03-15T15:36:19.235Z,98357.70
2023-03-15T15:37:58.846Z,98359.89
2023-03-15T15:39:51.904Z,98358.66
2023-03-15T15:41:24.347Z,98360.85
2023-03-15T15:42:58.971Z,98368.81
2023-03-15T15:44:26.767Z,98371.88
2023-03-15T15:46:10.712Z,98370.01
2023-03-15T15:47:42.811Z,98371.31
2023-03-15T15:49:26.658Z,98369.73
2023-03-15T15:50:58.686Z,98370.27
2023-03-15T15:52:51.866Z,98374.59
2023-03-15T15:54:35.916Z,98378.61
2023-03-15T15:56:20.049Z,98378.29
2023-03-15T15:57:51.872Z,98377.75
2023-03-15T15:59:31.708Z,98380.84
2023-03-15T16:01:04.617Z,98383.91
2023-03-15T16:02:49.157Z,98374.04
2023-03-15T16:04:32.815Z,98385.96
2023-03-15T16:06:05.167Z,98388.92
2023-03-15T16:07:39.323Z,98394.52
2023-03-15T16:09:00.155Z,98390.82
2023-03-15T16:10:46.403Z,98390.36
2023-03-15T16:12:18.836Z,98389.15
2023-03-15T16:13:59.283Z,98388.39
2023-03-15T16:15:39.048Z,98382.72
2023-03-15T16:17:14.341Z,98389.38
2023-03-15T16:18:46.503Z,98392.77
2023-03-15T16:20:08.441Z,98396.87
2023-03-15T16:21:51.761Z,98397.18
2023-03-15T16:23:12.411Z,98397.54
2023-03-15T16:24:51.606Z,98397.30
2023-03-15T16:26:24.165Z,98401.90
2023-03-15T16:28:16.855Z,98399.14
2023-03-15T16:29:44.894Z,98389.90
2023-03-15T16:31:08.395Z,98405.56
2023-03-15T16:32:52.307Z,98405.96
2023-03-15T16:34:13.258Z,98411.36
2023-03-15T16:35:37.820Z,98411.82
2023-03-15T16:37:11.224Z,98414.09
2023-03-15T16:38:55.361Z,98411.65
2023-03-15T16:40:24.579Z,98413.23
2023-03-15T16:42:08.763Z,98414.67
2023-03-15T16:43:39.307Z,98419.02
2023-03-15T16:45:11.591Z,98417.34
2023-03-15T16:46:36.326Z,98420.90
2023-03-15T16:48:19.975Z,98416.34
2023-03-15T16:49:59.914Z,98412.19
2023-03-15T16:51:23.243Z,98414.64
2023-03-15T16:52:55.809Z,98420.85
2023-03-15T16:54:40.651Z,98424.50
2023-03-15T16:56:07.120Z,98429.39
2023-03-15T16:57:30.527Z,98429.56
2023-03-15T16:58:53.261Z,98430.29
2023-03-15T17:00:37.011Z,98433.02
2023-03-15T17:02:17.938Z,98435.24
2023-03-15T17:04:02.673Z,98438.58
2023-03-15T17:05:32.670Z,98443.69
2023-03-15T17:07:16.338Z,98450.85
2023-03-15T17:09:00.473Z,98438.48
2023-03-15T17:10:41.075Z,98457.33
2023-03-15T17:12:13.127Z,98461.56
2023-03-15T17:13:44.761Z,98459.83
2023-03-15T17:15:16.458Z,98461.25
2023-03-15T17:16:55.942Z,98465.56
2023-03-15T17:18:29.994Z,98465.25
2023-03-15T17:20:17.478Z,98468.74
2023-03-15T17:21:57.764Z,98471.59
2023-03-15T17:23:41.296Z,98478.35
2023-03-15T17:25:06.666Z,98473.46
2023-03-15T17:26:38.305Z,98481.41
2023-03-15T17:27:59.654Z,98485.78
2023-03-15T17:29:33.857Z,98485.52
2023-03-15T17:31:14.074Z,98486.88
2023-03-15T17:32:39.954Z,98489.89
2023-03-15T17:34:08.057Z,98496.80
2023-03-15T17:35:36.906Z,98480.38
2023-03-15T17:37:00.404Z,98490.71
2023-03-15T17:38:40.449Z,98490.19
2023-03-15T17:40:20.706Z,98492.34
2023-03-15T17:41:48.345Z,98491.85
2023-03-15T17:43:19.174Z,98495.33
2023-03-15T17:44:58.621Z,98500.98
2023-03-15T17:46:19.742Z,98503.38
2023-03-15T17:47:44.917Z,98503.84
2023-03-15T17:49:20.099Z,98505.39
2023-03-15T17:50:52.143Z,98510.53
2023-03-15T17:52:27.105Z,98512.35
2023-03-15T17:53:59.144Z,98512.14
2023-03-15T17:55:39.620Z,98513.91
2023-03-15T17:57:12.174Z,98512.19
2023-03-15T17:58:53.862Z,98514.27
2023-03-15T18:00:33.629Z,98512.13
2023-03-15T18:02:01.858Z,98513.30
2023-03-15T18:03:34.058Z,98509.40
2023-03-15T18:04:56.959Z,98513.82
2023-03-15T18:06:32.477Z,98514.17
2023-03-15T18:08:16.160Z,98514.08
2023-03-15T18:09:57.884Z,98513.20
2023-03-15T18:11:50.357Z,98513.55
2023-03-15T18:13:34.274Z,98514.81
2023-03-15T18:15:17.894Z,98512.85
2023-03-15T18:17:03.207Z,98487.77
2023-03-15T18:18:46.845Z,98512.89
2023-03-15T18:20:21.136Z,98501.07
2023-03-15T18:21:56.586Z,98515.98
2023-03-15T18:23:18.878Z,98517.48
2023-03-15T18:24:39.294Z,98517.41
2023-03-15T18:26:13.338Z,98516.33
2023-03-15T18:27:48.204Z,98521.02
2023-03-15T18:29:11.128Z,98518.50
2023-03-15T18:31:03.271Z,98520.11
2023-03-15T18:32:36.223Z,98518.97
2023-03-15T18:34:16.295Z,98516.95
2023-03-15T18:35:37.163Z,98516.44
2023-03-15T18:37:10.924Z,98517.88
2023-03-15T18:38:36.031Z,98519.13
2023-03-15T18:39:57.894Z,98517.02
2023-03-15T18:41:20.485Z,98521.80
2023-03-15T18:42:49.166Z,98518.99
2023-03-15T18:44:10.095Z,98518.13
2023-03-15T18:45:42.066Z,98519.45
2023-03-15T18:47:14.661Z,98518.08
2023-03-15T18:48:58.367Z,98526.60
2023-03-15T18:50:42.078Z,98526.98
2023-03-15T18:52:03.238Z,98528.39
2023-03-15T18:53:36.052Z,98522.82
2023-03-15T18:54:58.827Z,98526.54
2023-03-15T18:56:33.707Z,98529.79
2023-03-15T18:58:19.848Z,98535.82
2023-03-15T18:59:51.923Z,98537.98
2023-03-15T19:01:26.621Z,98544.02
2023-03-15T19:02:58.810Z,98545.20